sensor_id;sensor_type;location;lat;lon;timestamp;temperature;humidity
9103;DHT22;4587;51.434;6.788;2023-02-05T00:02:14;7.90;99.90
9103;DHT22;4587;51.434;6.788;2023-02-05T00:04:39;7.90;99.90
9103;DHT22;4587;51.434;6.788;2023-02-05T00:07:05;7.90;99.90
9103;DHT22;4587;51.434;6.788;2023-02-05T00:09:31;7.90;99.90
9103;DHT22;4587;51.434;6.788;2023-02-05T00:11:57;7.90;99.90
9103;DHT22;4587;51.434;6.788;2023-02-05T00:14:23;7.90;99.90
9103;DHT22;4587;51.434;6.788;2023-02-05T00:16:49;7.80;99.90
9103;DHT22;4587;51.434;6.788;2023-02-05T00:19:15;7.80;99.90
9103;DHT22;4587;51.434;6.788;2023-02-05T00:21:40;7.70;99.90
9103;DHT22;4587;51.434;6.788;2023-02-05T00:24:06;7.80;99.90
9103;DHT22;4587;51.434;6.788;2023-02-05T00:26:32;7.70;99.90
9103;DHT22;4587;51.434;6.788;2023-02-05T00:28:57;7.70;99.90
9103;DHT22;4587;51.434;6.788;2023-02-05T00:31:23;7.80;99.90
9103;DHT22;4587;51.434;6.788;2023-02-05T00:33:50;7.80;99.90
9103;DHT22;4587;51.434;6.788;2023-02-05T00:36:16;7.80;99.90
9103;DHT22;4587;51.434;6.788;2023-02-05T00:38:44;7.80;99.90
9103;DHT22;4587;51.434;6.788;2023-02-05T00:41:11;7.70;99.90
9103;DHT22;4587;51.434;6.788;2023-02-05T00:43:38;7.80;99.90
9103;DHT22;4587;51.434;6.788;2023-02-05T00:46:03;7.80;99.90
9103;DHT22;4587;51.434;6.788;2023-02-05T00:48:29;7.70;99.90
9103;DHT22;4587;51.434;6.788;2023-02-05T00:50:55;7.70;99.90
9103;DHT22;4587;51.434;6.788;2023-02-05T00:53:21;7.60;99.90
9103;DHT22;4587;51.434;6.788;2023-02-05T00:55:47;7.60;99.90
9103;DHT22;4587;51.434;6.788;2023-02-05T00:58:14;7.60;99.90
9103;DHT22;4587;51.434;6.788;2023-02-05T01:00:40;7.60;99.90
9103;DHT22;4587;51.434;6.788;2023-02-05T01:03:05;7.60;99.90
9103;DHT22;4587;51.434;6.788;2023-02-05T01:05:33;7.60;99.90
9103;DHT22;4587;51.434;6.788;2023-02-05T01:07:58;7.70;99.90
9103;DHT22;4587;51.434;6.788;2023-02-05T01:10:24;7.70;99.90
9103;DHT22;4587;51.434;6.788;2023-02-05T01:12:50;7.70;99.90
9103;DHT22;4587;51.434;6.788;2023-02-05T01:15:16;7.60;99.90
9103;DHT22;4587;51.434;6.788;2023-02-05T01:17:41;7.60;99.90
9103;DHT22;4587;51.434;6.788;2023-02-05T01:20:08;7.60;99.90
9103;DHT22;4587;51.434;6.788;2023-02-05T01:22:34;7.70;99.90
9103;DHT22;4587;51.434;6.788;2023-02-05T01:25:00;7.80;99.90
9103;DHT22;4587;51.434;6.788;2023-02-05T01:27:26;7.70;99.90
9103;DHT22;4587;51.434;6.788;2023-02-05T01:29:51;7.70;99.90
9103;DHT22;4587;51.434;6.788;2023-02-05T01:32:18;7.70;99.90
9103;DHT22;4587;51.434;6.788;2023-02-05T01:34:44;7.70;99.90
9103;DHT22;4587;51.434;6.788;2023-02-05T01:37:10;7.70;99.90
9103;DHT22;4587;51.434;6.788;2023-02-05T01:39:37;7.60;99.90
9103;DHT22;4587;51.434;6.788;2023-02-05T01:42:05;7.60;99.90
9103;DHT22;4587;51.434;6.788;2023-02-05T01:44:39;7.60;99.90
9103;DHT22;4587;51.434;6.788;2023-02-05T01:47:05;7.60;99.90
9103;DHT22;4587;51.434;6.788;2023-02-05T01:49:37;7.50;99.90
9103;DHT22;4587;51.434;6.788;2023-02-05T01:52:07;7.50;99.90
9103;DHT22;4587;51.434;6.788;2023-02-05T01:54:36;7.50;99.90
9103;DHT22;4587;51.434;6.788;2023-02-05T01:57:07;7.40;99.90
9103;DHT22;4587;51.434;6.788;2023-02-05T01:59:36;7.40;99.90
9103;DHT22;4587;51.434;6.788;2023-02-05T02:02:03;7.40;99.90
9103;DHT22;4587;51.434;6.788;2023-02-05T02:04:44;7.30;99.90
9103;DHT22;4587;51.434;6.788;2023-02-05T02:07:13;7.40;99.90
9103;DHT22;4587;51.434;6.788;2023-02-05T02:09:41;7.40;99.90
9103;DHT22;4587;51.434;6.788;2023-02-05T02:12:08;7.50;99.90
9103;DHT22;4587;51.434;6.788;2023-02-05T02:14:35;7.50;99.90
9103;DHT22;4587;51.434;6.788;2023-02-05T02:17:03;7.40;99.90
9103;DHT22;4587;51.434;6.788;2023-02-05T02:19:49;7.50;99.90
9103;DHT22;4587;51.434;6.788;2023-02-05T02:25:33;7.50;99.90
9103;DHT22;4587;51.434;6.788;2023-02-05T02:28:12;7.50;99.90
9103;DHT22;4587;51.434;6.788;2023-02-05T02:30:42;7.50;99.90
9103;DHT22;4587;51.434;6.788;2023-02-05T02:38:32;7.50;99.90
9103;DHT22;4587;51.434;6.788;2023-02-05T02:43:57;7.50;99.90
9103;DHT22;4587;51.434;6.788;2023-02-05T02:46:49;7.50;99.90
9103;DHT22;4587;51.434;6.788;2023-02-05T02:49:37;7.50;99.90
9103;DHT22;4587;51.434;6.788;2023-02-05T02:52:06;7.50;99.90
9103;DHT22;4587;51.434;6.788;2023-02-05T02:54:35;7.50;99.90
9103;DHT22;4587;51.434;6.788;2023-02-05T02:57:06;7.60;99.90
9103;DHT22;4587;51.434;6.788;2023-02-05T02:59:35;7.60;99.90
9103;DHT22;4587;51.434;6.788;2023-02-05T03:02:04;7.60;99.90
9103;DHT22;4587;51.434;6.788;2023-02-05T03:04:37;7.60;99.90
9103;DHT22;4587;51.434;6.788;2023-02-05T03:07:10;7.60;99.90
9103;DHT22;4587;51.434;6.788;2023-02-05T03:09:49;7.60;99.90
9103;DHT22;4587;51.434;6.788;2023-02-05T03:12:17;7.60;99.90
9103;DHT22;4587;51.434;6.788;2023-02-05T03:14:43;7.60;99.90
9103;DHT22;4587;51.434;6.788;2023-02-05T03:17:09;7.70;99.90
9103;DHT22;4587;51.434;6.788;2023-02-05T03:19:34;7.60;99.90
9103;DHT22;4587;51.434;6.788;2023-02-05T03:22:03;7.60;99.90
9103;DHT22;4587;51.434;6.788;2023-02-05T03:24:32;7.80;99.90
9103;DHT22;4587;51.434;6.788;2023-02-05T03:26:57;7.80;99.90
9103;DHT22;4587;51.434;6.788;2023-02-05T03:29:29;7.80;99.90
9103;DHT22;4587;51.434;6.788;2023-02-05T03:37:24;7.70;99.90
9103;DHT22;4587;51.434;6.788;2023-02-05T03:39:59;7.60;99.90
9103;DHT22;4587;51.434;6.788;2023-02-05T03:42:45;7.60;99.90
9103;DHT22;4587;51.434;6.788;2023-02-05T03:56:21;7.70;99.90
9103;DHT22;4587;51.434;6.788;2023-02-05T03:58:51;7.70;99.90
9103;DHT22;4587;51.434;6.788;2023-02-05T04:01:19;7.90;99.90
9103;DHT22;4587;51.434;6.788;2023-02-05T04:03:45;7.80;99.90
9103;DHT22;4587;51.434;6.788;2023-02-05T04:06:11;7.90;99.90
9103;DHT22;4587;51.434;6.788;2023-02-05T04:08:36;7.90;99.90
9103;DHT22;4587;51.434;6.788;2023-02-05T04:11:02;7.90;99.90
9103;DHT22;4587;51.434;6.788;2023-02-05T04:13:28;7.90;99.90
9103;DHT22;4587;51.434;6.788;2023-02-05T04:15:53;8.00;99.90
9103;DHT22;4587;51.434;6.788;2023-02-05T04:18:19;8.10;99.90
9103;DHT22;4587;51.434;6.788;2023-02-05T04:20:44;8.10;99.90
9103;DHT22;4587;51.434;6.788;2023-02-05T04:23:10;8.20;99.90
9103;DHT22;4587;51.434;6.788;2023-02-05T04:25:37;8.20;99.90
9103;DHT22;4587;51.434;6.788;2023-02-05T04:28:03;8.20;99.90
9103;DHT22;4587;51.434;6.788;2023-02-05T04:30:30;8.20;99.90
9103;DHT22;4587;51.434;6.788;2023-02-05T04:32:55;8.10;99.90
9103;DHT22;4587;51.434;6.788;2023-02-05T04:35:21;8.10;99.90
9103;DHT22;4587;51.434;6.788;2023-02-05T04:37:47;8.00;99.90
9103;DHT22;4587;51.434;6.788;2023-02-05T04:40:12;8.00;99.90
9103;DHT22;4587;51.434;6.788;2023-02-05T04:42:38;8.00;99.90
9103;DHT22;4587;51.434;6.788;2023-02-05T04:45:04;8.00;99.90
9103;DHT22;4587;51.434;6.788;2023-02-05T04:47:31;8.00;99.90
9103;DHT22;4587;51.434;6.788;2023-02-05T04:49:56;7.90;99.90
9103;DHT22;4587;51.434;6.788;2023-02-05T04:52:22;8.00;99.90
9103;DHT22;4587;51.434;6.788;2023-02-05T04:54:48;7.90;99.90
9103;DHT22;4587;51.434;6.788;2023-02-05T04:57:14;8.00;99.90
9103;DHT22;4587;51.434;6.788;2023-02-05T04:59:39;7.90;99.90
9103;DHT22;4587;51.434;6.788;2023-02-05T05:02:05;8.00;99.90
9103;DHT22;4587;51.434;6.788;2023-02-05T05:04:30;8.00;99.90
9103;DHT22;4587;51.434;6.788;2023-02-05T05:06:56;8.00;99.90
9103;DHT22;4587;51.434;6.788;2023-02-05T05:09:22;8.00;99.90
9103;DHT22;4587;51.434;6.788;2023-02-05T05:11:50;8.00;99.90
9103;DHT22;4587;51.434;6.788;2023-02-05T05:14:16;8.00;99.90
9103;DHT22;4587;51.434;6.788;2023-02-05T05:16:41;8.10;99.90
9103;DHT22;4587;51.434;6.788;2023-02-05T05:19:07;8.10;99.90
9103;DHT22;4587;51.434;6.788;2023-02-05T05:21:33;8.10;99.90
9103;DHT22;4587;51.434;6.788;2023-02-05T05:23:58;8.10;99.90
9103;DHT22;4587;51.434;6.788;2023-02-05T05:26:24;8.10;99.90
9103;DHT22;4587;51.434;6.788;2023-02-05T05:28:53;8.00;99.90
9103;DHT22;4587;51.434;6.788;2023-02-05T05:31:19;8.00;99.90
9103;DHT22;4587;51.434;6.788;2023-02-05T05:33:45;8.00;99.90
9103;DHT22;4587;51.434;6.788;2023-02-05T05:36:11;8.00;99.90
9103;DHT22;4587;51.434;6.788;2023-02-05T05:38:37;7.90;99.90
9103;DHT22;4587;51.434;6.788;2023-02-05T05:41:03;7.90;99.90
9103;DHT22;4587;51.434;6.788;2023-02-05T05:43:48;8.00;99.90
9103;DHT22;4587;51.434;6.788;2023-02-05T05:46:17;7.90;99.90
9103;DHT22;4587;51.434;6.788;2023-02-05T05:48:56;8.00;99.90
9103;DHT22;4587;51.434;6.788;2023-02-05T05:51:24;8.00;99.90
9103;DHT22;4587;51.434;6.788;2023-02-05T05:53:50;8.00;99.90
9103;DHT22;4587;51.434;6.788;2023-02-05T05:56:17;7.90;99.90
9103;DHT22;4587;51.434;6.788;2023-02-05T05:58:42;8.00;99.90
9103;DHT22;4587;51.434;6.788;2023-02-05T06:01:09;8.00;99.90
9103;DHT22;4587;51.434;6.788;2023-02-05T06:03:34;8.00;99.90
9103;DHT22;4587;51.434;6.788;2023-02-05T06:06:04;8.00;99.90
9103;DHT22;4587;51.434;6.788;2023-02-05T06:08:31;8.00;99.90
9103;DHT22;4587;51.434;6.788;2023-02-05T06:10:56;7.90;99.90
9103;DHT22;4587;51.434;6.788;2023-02-05T06:13:22;8.00;99.90
9103;DHT22;4587;51.434;6.788;2023-02-05T06:15:47;8.00;99.90
9103;DHT22;4587;51.434;6.788;2023-02-05T06:18:14;8.00;99.90
9103;DHT22;4587;51.434;6.788;2023-02-05T06:20:40;8.00;99.90
9103;DHT22;4587;51.434;6.788;2023-02-05T06:23:06;8.10;99.90
9103;DHT22;4587;51.434;6.788;2023-02-05T06:25:31;8.00;99.90
9103;DHT22;4587;51.434;6.788;2023-02-05T06:27:57;8.00;99.90
9103;DHT22;4587;51.434;6.788;2023-02-05T06:30:22;8.10;99.90
9103;DHT22;4587;51.434;6.788;2023-02-05T06:32:48;8.00;99.90
9103;DHT22;4587;51.434;6.788;2023-02-05T06:35:14;8.00;99.90
9103;DHT22;4587;51.434;6.788;2023-02-05T06:37:39;8.00;99.90
9103;DHT22;4587;51.434;6.788;2023-02-05T06:40:05;8.00;99.90
9103;DHT22;4587;51.434;6.788;2023-02-05T06:42:31;8.10;99.90
9103;DHT22;4587;51.434;6.788;2023-02-05T06:44:57;8.10;99.90
9103;DHT22;4587;51.434;6.788;2023-02-05T06:47:22;8.10;99.90
9103;DHT22;4587;51.434;6.788;2023-02-05T06:49:48;8.10;99.90
9103;DHT22;4587;51.434;6.788;2023-02-05T06:52:13;8.10;99.90
9103;DHT22;4587;51.434;6.788;2023-02-05T06:54:39;8.10;99.90
9103;DHT22;4587;51.434;6.788;2023-02-05T06:57:04;8.10;99.90
9103;DHT22;4587;51.434;6.788;2023-02-05T06:59:30;8.20;99.90
9103;DHT22;4587;51.434;6.788;2023-02-05T07:01:55;8.10;99.90
9103;DHT22;4587;51.434;6.788;2023-02-05T07:04:21;8.10;99.90
9103;DHT22;4587;51.434;6.788;2023-02-05T07:06:46;8.10;99.90
9103;DHT22;4587;51.434;6.788;2023-02-05T07:09:12;8.20;99.90
9103;DHT22;4587;51.434;6.788;2023-02-05T07:11:37;8.10;99.90
9103;DHT22;4587;51.434;6.788;2023-02-05T07:14:03;8.20;99.90
9103;DHT22;4587;51.434;6.788;2023-02-05T07:16:29;8.20;99.90
9103;DHT22;4587;51.434;6.788;2023-02-05T07:18:57;8.10;99.90
9103;DHT22;4587;51.434;6.788;2023-02-05T07:21:22;8.10;99.90
9103;DHT22;4587;51.434;6.788;2023-02-05T07:23:48;8.10;99.90
9103;DHT22;4587;51.434;6.788;2023-02-05T07:26:15;8.10;99.90
9103;DHT22;4587;51.434;6.788;2023-02-05T07:28:41;8.10;99.90
9103;DHT22;4587;51.434;6.788;2023-02-05T07:31:12;8.10;99.90
9103;DHT22;4587;51.434;6.788;2023-02-05T07:33:41;8.10;99.90
9103;DHT22;4587;51.434;6.788;2023-02-05T07:36:09;8.10;99.90
9103;DHT22;4587;51.434;6.788;2023-02-05T07:38:36;8.10;99.90
9103;DHT22;4587;51.434;6.788;2023-02-05T07:41:06;8.10;99.90
9103;DHT22;4587;51.434;6.788;2023-02-05T07:43:32;8.10;99.90
9103;DHT22;4587;51.434;6.788;2023-02-05T07:46:00;8.10;99.90
9103;DHT22;4587;51.434;6.788;2023-02-05T07:48:26;8.10;99.90
9103;DHT22;4587;51.434;6.788;2023-02-05T07:50:52;8.10;99.90
9103;DHT22;4587;51.434;6.788;2023-02-05T07:53:18;8.00;99.90
9103;DHT22;4587;51.434;6.788;2023-02-05T07:55:44;8.10;99.90
9103;DHT22;4587;51.434;6.788;2023-02-05T07:58:10;8.10;99.90
9103;DHT22;4587;51.434;6.788;2023-02-05T08:00:36;8.20;99.90
9103;DHT22;4587;51.434;6.788;2023-02-05T08:03:02;8.20;99.90
9103;DHT22;4587;51.434;6.788;2023-02-05T08:05:27;8.20;99.90
9103;DHT22;4587;51.434;6.788;2023-02-05T08:07:53;8.20;99.90
9103;DHT22;4587;51.434;6.788;2023-02-05T08:10:19;8.20;99.90
9103;DHT22;4587;51.434;6.788;2023-02-05T08:12:44;8.20;99.90
9103;DHT22;4587;51.434;6.788;2023-02-05T08:15:10;8.10;99.90
9103;DHT22;4587;51.434;6.788;2023-02-05T08:17:35;8.20;99.90
9103;DHT22;4587;51.434;6.788;2023-02-05T08:20:01;8.20;99.90
9103;DHT22;4587;51.434;6.788;2023-02-05T08:22:33;8.10;99.90
9103;DHT22;4587;51.434;6.788;2023-02-05T08:24:59;8.10;99.90
9103;DHT22;4587;51.434;6.788;2023-02-05T08:27:24;8.00;99.90
9103;DHT22;4587;51.434;6.788;2023-02-05T08:29:50;7.90;99.90
9103;DHT22;4587;51.434;6.788;2023-02-05T08:32:16;7.70;99.90
9103;DHT22;4587;51.434;6.788;2023-02-05T08:34:41;7.60;99.90
9103;DHT22;4587;51.434;6.788;2023-02-05T08:37:07;7.60;99.90
9103;DHT22;4587;51.434;6.788;2023-02-05T08:39:32;7.70;99.90
9103;DHT22;4587;51.434;6.788;2023-02-05T08:41:58;7.60;99.90
9103;DHT22;4587;51.434;6.788;2023-02-05T08:44:23;7.60;99.90
9103;DHT22;4587;51.434;6.788;2023-02-05T08:46:49;7.70;99.90
9103;DHT22;4587;51.434;6.788;2023-02-05T08:49:15;7.60;99.90
9103;DHT22;4587;51.434;6.788;2023-02-05T08:51:41;7.60;99.90
9103;DHT22;4587;51.434;6.788;2023-02-05T08:54:07;7.60;99.90
9103;DHT22;4587;51.434;6.788;2023-02-05T08:56:41;7.60;99.90
9103;DHT22;4587;51.434;6.788;2023-02-05T08:59:07;7.50;99.90
9103;DHT22;4587;51.434;6.788;2023-02-05T09:01:34;7.40;99.90
9103;DHT22;4587;51.434;6.788;2023-02-05T09:04:02;7.40;99.90
9103;DHT22;4587;51.434;6.788;2023-02-05T09:06:29;7.40;99.90
9103;DHT22;4587;51.434;6.788;2023-02-05T09:08:54;7.50;99.90
9103;DHT22;4587;51.434;6.788;2023-02-05T09:11:21;7.40;99.90
9103;DHT22;4587;51.434;6.788;2023-02-05T09:13:47;7.40;99.90
9103;DHT22;4587;51.434;6.788;2023-02-05T09:16:13;7.50;99.90
9103;DHT22;4587;51.434;6.788;2023-02-05T09:18:38;7.50;99.90
9103;DHT22;4587;51.434;6.788;2023-02-05T09:21:08;7.50;99.90
9103;DHT22;4587;51.434;6.788;2023-02-05T09:23:34;7.60;99.90
9103;DHT22;4587;51.434;6.788;2023-02-05T09:25:59;7.60;99.90
9103;DHT22;4587;51.434;6.788;2023-02-05T09:28:25;7.60;99.90
9103;DHT22;4587;51.434;6.788;2023-02-05T09:30:51;7.50;99.90
9103;DHT22;4587;51.434;6.788;2023-02-05T09:33:16;7.50;99.90
9103;DHT22;4587;51.434;6.788;2023-02-05T09:35:42;7.50;99.90
9103;DHT22;4587;51.434;6.788;2023-02-05T09:38:11;7.50;99.90
9103;DHT22;4587;51.434;6.788;2023-02-05T09:40:38;7.40;99.90
9103;DHT22;4587;51.434;6.788;2023-02-05T09:43:28;7.50;99.90
9103;DHT22;4587;51.434;6.788;2023-02-05T09:51:35;7.40;99.90
9103;DHT22;4587;51.434;6.788;2023-02-05T09:54:26;7.50;99.90
9103;DHT22;4587;51.434;6.788;2023-02-05T09:56:52;7.60;99.90
9103;DHT22;4587;51.434;6.788;2023-02-05T09:59:21;7.60;99.90
9103;DHT22;4587;51.434;6.788;2023-02-05T10:01:57;7.70;99.90
9103;DHT22;4587;51.434;6.788;2023-02-05T10:04:24;7.60;99.90
9103;DHT22;4587;51.434;6.788;2023-02-05T10:25:32;7.80;99.90
9103;DHT22;4587;51.434;6.788;2023-02-05T10:30:40;7.70;99.90
9103;DHT22;4587;51.434;6.788;2023-02-05T10:35:59;7.80;99.90
9103;DHT22;4587;51.434;6.788;2023-02-05T10:38:28;7.80;99.90
9103;DHT22;4587;51.434;6.788;2023-02-05T10:41:00;7.80;99.90
9103;DHT22;4587;51.434;6.788;2023-02-05T10:45:55;7.90;99.90
9103;DHT22;4587;51.434;6.788;2023-02-05T10:51:05;7.80;99.90
9103;DHT22;4587;51.434;6.788;2023-02-05T10:53:32;7.80;99.90
9103;DHT22;4587;51.434;6.788;2023-02-05T10:56:01;7.70;99.90
9103;DHT22;4587;51.434;6.788;2023-02-05T10:58:37;7.70;99.90
9103;DHT22;4587;51.434;6.788;2023-02-05T11:01:11;7.70;99.90
9103;DHT22;4587;51.434;6.788;2023-02-05T11:03:38;7.80;99.90
9103;DHT22;4587;51.434;6.788;2023-02-05T11:06:08;7.80;99.90
9103;DHT22;4587;51.434;6.788;2023-02-05T11:08:40;7.70;99.90
9103;DHT22;4587;51.434;6.788;2023-02-05T11:11:06;7.80;99.90
9103;DHT22;4587;51.434;6.788;2023-02-05T11:13:46;7.70;99.90
9103;DHT22;4587;51.434;6.788;2023-02-05T11:16:13;7.70;99.90
9103;DHT22;4587;51.434;6.788;2023-02-05T11:18:44;7.80;99.90
9103;DHT22;4587;51.434;6.788;2023-02-05T11:21:10;7.70;99.90
9103;DHT22;4587;51.434;6.788;2023-02-05T11:23:37;7.80;99.90
9103;DHT22;4587;51.434;6.788;2023-02-05T11:28:35;7.80;99.90
9103;DHT22;4587;51.434;6.788;2023-02-05T11:31:27;7.80;99.90
9103;DHT22;4587;51.434;6.788;2023-02-05T11:36:35;7.70;99.90
9103;DHT22;4587;51.434;6.788;2023-02-05T11:39:01;7.70;99.90
9103;DHT22;4587;51.434;6.788;2023-02-05T11:41:33;7.70;99.90
9103;DHT22;4587;51.434;6.788;2023-02-05T11:44:32;7.70;99.90
9103;DHT22;4587;51.434;6.788;2023-02-05T11:47:00;7.70;99.90
9103;DHT22;4587;51.434;6.788;2023-02-05T11:49:32;7.70;99.90
9103;DHT22;4587;51.434;6.788;2023-02-05T11:51:59;7.60;99.90
9103;DHT22;4587;51.434;6.788;2023-02-05T11:54:32;7.70;99.90
9103;DHT22;4587;51.434;6.788;2023-02-05T12:02:38;7.70;99.90
9103;DHT22;4587;51.434;6.788;2023-02-05T12:07:58;7.80;99.90
9103;DHT22;4587;51.434;6.788;2023-02-05T12:10:37;7.70;99.90
9103;DHT22;4587;51.434;6.788;2023-02-05T12:16:32;7.80;99.90
9103;DHT22;4587;51.434;6.788;2023-02-05T12:21:33;7.80;99.90
9103;DHT22;4587;51.434;6.788;2023-02-05T12:24:37;7.80;99.90
9103;DHT22;4587;51.434;6.788;2023-02-05T12:32:36;7.70;99.90
9103;DHT22;4587;51.434;6.788;2023-02-05T12:43:39;8.00;99.90
9103;DHT22;4587;51.434;6.788;2023-02-05T12:46:30;7.90;99.90
9103;DHT22;4587;51.434;6.788;2023-02-05T12:54:38;7.90;99.90
9103;DHT22;4587;51.434;6.788;2023-02-05T12:57:17;7.90;99.90
9103;DHT22;4587;51.434;6.788;2023-02-05T12:59:52;7.90;99.90
9103;DHT22;4587;51.434;6.788;2023-02-05T13:02:47;7.90;99.90
9103;DHT22;4587;51.434;6.788;2023-02-05T13:05:27;7.90;99.90
9103;DHT22;4587;51.434;6.788;2023-02-05T13:08:05;7.90;99.90
9103;DHT22;4587;51.434;6.788;2023-02-05T13:10:51;7.90;99.90
9103;DHT22;4587;51.434;6.788;2023-02-05T13:13:35;7.90;99.90
9103;DHT22;4587;51.434;6.788;2023-02-05T13:16:09;7.90;99.90
9103;DHT22;4587;51.434;6.788;2023-02-05T13:18:39;7.90;99.90
9103;DHT22;4587;51.434;6.788;2023-02-05T13:21:09;7.80;99.90
9103;DHT22;4587;51.434;6.788;2023-02-05T13:24:48;7.90;99.90
9103;DHT22;4587;51.434;6.788;2023-02-05T13:27:33;8.00;99.90
9103;DHT22;4587;51.434;6.788;2023-02-05T13:30:48;8.00;99.90
9103;DHT22;4587;51.434;6.788;2023-02-05T13:33:15;8.10;99.90
9103;DHT22;4587;51.434;6.788;2023-02-05T13:47:06;8.30;99.90
9103;DHT22;4587;51.434;6.788;2023-02-05T13:58:25;8.30;99.90
9103;DHT22;4587;51.434;6.788;2023-02-05T14:01:23;8.30;99.90
9103;DHT22;4587;51.434;6.788;2023-02-05T14:04:02;8.30;99.90
9103;DHT22;4587;51.434;6.788;2023-02-05T14:06:36;8.40;99.90
9103;DHT22;4587;51.434;6.788;2023-02-05T14:09:48;8.40;99.90
9103;DHT22;4587;51.434;6.788;2023-02-05T14:11:57;8.50;99.90
9103;DHT22;4587;51.434;6.788;2023-02-05T14:14:30;8.50;99.90
9103;DHT22;4587;51.434;6.788;2023-02-05T14:16:58;8.50;99.90
9103;DHT22;4587;51.434;6.788;2023-02-05T14:19:48;8.50;99.90
9103;DHT22;4587;51.434;6.788;2023-02-05T14:22:39;8.50;99.90
9103;DHT22;4587;51.434;6.788;2023-02-05T14:41:17;8.40;99.90
9103;DHT22;4587;51.434;6.788;2023-02-05T14:44:16;8.40;99.90
9103;DHT22;4587;51.434;6.788;2023-02-05T14:46:42;8.40;99.90
9103;DHT22;4587;51.434;6.788;2023-02-05T14:49:22;8.40;99.90
9103;DHT22;4587;51.434;6.788;2023-02-05T14:51:57;8.40;99.90
9103;DHT22;4587;51.434;6.788;2023-02-05T14:54:31;8.40;99.90
9103;DHT22;4587;51.434;6.788;2023-02-05T14:57:17;8.50;99.90
9103;DHT22;4587;51.434;6.788;2023-02-05T14:59:50;8.50;99.90
9103;DHT22;4587;51.434;6.788;2023-02-05T15:11:04;8.50;99.90
9103;DHT22;4587;51.434;6.788;2023-02-05T15:13:32;8.50;99.90
9103;DHT22;4587;51.434;6.788;2023-02-05T15:18:42;8.50;99.90
9103;DHT22;4587;51.434;6.788;2023-02-05T15:24:24;8.40;99.90
9103;DHT22;4587;51.434;6.788;2023-02-05T15:27:00;8.40;99.90
9103;DHT22;4587;51.434;6.788;2023-02-05T15:29:52;8.30;99.90
9103;DHT22;4587;51.434;6.788;2023-02-05T15:32:47;8.30;99.90
9103;DHT22;4587;51.434;6.788;2023-02-05T15:35:16;8.40;99.90
9103;DHT22;4587;51.434;6.788;2023-02-05T15:37:49;8.40;99.90
9103;DHT22;4587;51.434;6.788;2023-02-05T15:40:22;8.40;99.90
9103;DHT22;4587;51.434;6.788;2023-02-05T15:42:56;8.40;99.90
9103;DHT22;4587;51.434;6.788;2023-02-05T15:53:37;8.40;99.90
9103;DHT22;4587;51.434;6.788;2023-02-05T15:58:53;8.40;99.90
9103;DHT22;4587;51.434;6.788;2023-02-05T16:01:41;8.40;99.90
9103;DHT22;4587;51.434;6.788;2023-02-05T16:04:19;8.40;99.90
9103;DHT22;4587;51.434;6.788;2023-02-05T16:06:49;8.40;99.90
9103;DHT22;4587;51.434;6.788;2023-02-05T16:09:20;8.30;99.90
9103;DHT22;4587;51.434;6.788;2023-02-05T16:11:46;8.40;99.90
9103;DHT22;4587;51.434;6.788;2023-02-05T16:14:26;8.30;99.90
9103;DHT22;4587;51.434;6.788;2023-02-05T16:19:45;8.40;99.90
9103;DHT22;4587;51.434;6.788;2023-02-05T16:22:23;8.40;99.90
9103;DHT22;4587;51.434;6.788;2023-02-05T16:24:53;8.40;99.90
9103;DHT22;4587;51.434;6.788;2023-02-05T16:27:44;8.30;99.90
9103;DHT22;4587;51.434;6.788;2023-02-05T16:32:59;8.20;99.90
9103;DHT22;4587;51.434;6.788;2023-02-05T16:35:29;8.10;99.90
9103;DHT22;4587;51.434;6.788;2023-02-05T16:37:55;8.10;99.90
9103;DHT22;4587;51.434;6.788;2023-02-05T16:40:31;8.00;99.90
9103;DHT22;4587;51.434;6.788;2023-02-05T16:43:03;8.00;99.90
9103;DHT22;4587;51.434;6.788;2023-02-05T16:45:40;8.00;99.90
9103;DHT22;4587;51.434;6.788;2023-02-05T16:48:21;7.90;99.90
9103;DHT22;4587;51.434;6.788;2023-02-05T16:50:48;7.80;99.90
9103;DHT22;4587;51.434;6.788;2023-02-05T16:53:21;7.80;99.90
9103;DHT22;4587;51.434;6.788;2023-02-05T16:55:47;7.70;99.90
9103;DHT22;4587;51.434;6.788;2023-02-05T16:58:20;7.70;99.90
9103;DHT22;4587;51.434;6.788;2023-02-05T17:00:55;7.60;99.90
9103;DHT22;4587;51.434;6.788;2023-02-05T17:03:21;7.60;99.90
9103;DHT22;4587;51.434;6.788;2023-02-05T17:05:59;7.70;99.90
9103;DHT22;4587;51.434;6.788;2023-02-05T17:08:28;7.80;99.90
9103;DHT22;4587;51.434;6.788;2023-02-05T17:10:57;7.80;99.90
9103;DHT22;4587;51.434;6.788;2023-02-05T17:13:43;7.90;99.90
9103;DHT22;4587;51.434;6.788;2023-02-05T17:16:30;7.90;99.90
9103;DHT22;4587;51.434;6.788;2023-02-05T17:19:00;7.80;99.90
9103;DHT22;4587;51.434;6.788;2023-02-05T17:21:28;7.90;99.90
9103;DHT22;4587;51.434;6.788;2023-02-05T17:23:54;7.90;99.90
9103;DHT22;4587;51.434;6.788;2023-02-05T17:26:22;7.80;99.90
9103;DHT22;4587;51.434;6.788;2023-02-05T17:29:00;7.80;99.90
9103;DHT22;4587;51.434;6.788;2023-02-05T17:31:27;7.80;99.90
9103;DHT22;4587;51.434;6.788;2023-02-05T17:33:56;7.80;99.90
9103;DHT22;4587;51.434;6.788;2023-02-05T17:36:23;7.80;99.90
9103;DHT22;4587;51.434;6.788;2023-02-05T17:38:48;7.80;99.90
9103;DHT22;4587;51.434;6.788;2023-02-05T17:41:29;7.70;99.90
9103;DHT22;4587;51.434;6.788;2023-02-05T17:44:15;7.70;99.90
9103;DHT22;4587;51.434;6.788;2023-02-05T17:46:42;7.70;99.90
9103;DHT22;4587;51.434;6.788;2023-02-05T17:49:08;7.80;99.90
9103;DHT22;4587;51.434;6.788;2023-02-05T17:51:34;7.70;99.90
9103;DHT22;4587;51.434;6.788;2023-02-05T17:54:00;7.60;99.90
9103;DHT22;4587;51.434;6.788;2023-02-05T17:56:26;7.60;99.90
9103;DHT22;4587;51.434;6.788;2023-02-05T17:58:52;7.60;99.90
9103;DHT22;4587;51.434;6.788;2023-02-05T18:01:20;7.50;99.90
9103;DHT22;4587;51.434;6.788;2023-02-05T18:03:46;7.60;99.90
9103;DHT22;4587;51.434;6.788;2023-02-05T18:06:13;7.50;99.90
9103;DHT22;4587;51.434;6.788;2023-02-05T18:08:40;7.50;99.90
9103;DHT22;4587;51.434;6.788;2023-02-05T18:11:06;7.40;99.90
9103;DHT22;4587;51.434;6.788;2023-02-05T18:13:32;7.40;99.90
9103;DHT22;4587;51.434;6.788;2023-02-05T18:15:57;7.40;99.90
9103;DHT22;4587;51.434;6.788;2023-02-05T18:18:28;7.40;99.90
9103;DHT22;4587;51.434;6.788;2023-02-05T18:20:54;7.40;99.90
9103;DHT22;4587;51.434;6.788;2023-02-05T18:23:19;7.40;99.90
9103;DHT22;4587;51.434;6.788;2023-02-05T18:25:45;7.40;99.90
9103;DHT22;4587;51.434;6.788;2023-02-05T18:28:10;7.40;99.90
9103;DHT22;4587;51.434;6.788;2023-02-05T18:30:36;7.40;99.90
9103;DHT22;4587;51.434;6.788;2023-02-05T18:33:01;7.30;99.90
9103;DHT22;4587;51.434;6.788;2023-02-05T18:35:27;7.40;99.90
9103;DHT22;4587;51.434;6.788;2023-02-05T18:37:52;7.40;99.90
9103;DHT22;4587;51.434;6.788;2023-02-05T18:40:18;7.40;99.90
9103;DHT22;4587;51.434;6.788;2023-02-05T18:42:44;7.30;99.90
9103;DHT22;4587;51.434;6.788;2023-02-05T18:45:13;7.40;99.90
9103;DHT22;4587;51.434;6.788;2023-02-05T18:47:38;7.30;99.90
9103;DHT22;4587;51.434;6.788;2023-02-05T18:50:04;7.20;99.90
9103;DHT22;4587;51.434;6.788;2023-02-05T18:52:30;7.20;99.90
9103;DHT22;4587;51.434;6.788;2023-02-05T18:54:56;7.20;99.90
9103;DHT22;4587;51.434;6.788;2023-02-05T18:57:21;7.20;99.90
9103;DHT22;4587;51.434;6.788;2023-02-05T18:59:47;7.10;99.90
9103;DHT22;4587;51.434;6.788;2023-02-05T19:02:13;7.10;99.90
9103;DHT22;4587;51.434;6.788;2023-02-05T19:04:39;7.00;99.90
9103;DHT22;4587;51.434;6.788;2023-02-05T19:07:06;7.10;99.90
9103;DHT22;4587;51.434;6.788;2023-02-05T19:09:32;7.10;99.90
9103;DHT22;4587;51.434;6.788;2023-02-05T19:11:58;7.00;99.90
9103;DHT22;4587;51.434;6.788;2023-02-05T19:14:24;7.00;99.90
9103;DHT22;4587;51.434;6.788;2023-02-05T19:16:50;7.10;99.90
9103;DHT22;4587;51.434;6.788;2023-02-05T19:19:21;7.10;99.90
9103;DHT22;4587;51.434;6.788;2023-02-05T19:21:52;7.10;99.90
9103;DHT22;4587;51.434;6.788;2023-02-05T19:24:18;7.10;99.90